Time;durP1;ratioP1;P1;durP2;ratioP2;P2;SDS_P1;SDS_P2;PMS_P1;PMS_P2;Temp;Humidity;BMP_temperature;BMP_pressure;BME280_temperature;BME280_humidity;BME280_pressure;Samples;Min_cycle;Max_cycle;Signal;HPM_P1;HPM_P2
2024/01/01 00:02:23;;;;;;;;;;;7.80;99.90;;;;;;4980354;28;19914;-80
2024/01/01 00:05:10;;;;;;;;;;;7.80;99.90;;;;;;4982756;28;19917;-79
2024/01/01 00:07:56;;;;;;;;;;;7.80;99.90;;;;;;4977701;28;20000;-80
2024/01/01 00:10:44;;;;;;;;;;;7.80;99.90;;;;;;4987046;28;19914;-78
2024/01/01 00:13:30;;;;;;;;;;;7.80;99.90;;;;;;5001393;28;19924;-78
2024/01/01 00:16:15;;;;;;;;;;;7.80;99.90;;;;;;4963485;28;19981;-79
2024/01/01 00:19:01;;;;;;;;;;;7.80;99.90;;;;;;4982539;28;20357;-78
2024/01/01 00:21:47;;;;;;;;;;;7.80;99.90;;;;;;4983552;28;19924;-79
2024/01/01 00:24:33;;;;;;;;;;;7.80;99.90;;;;;;4998722;28;19924;-79
2024/01/01 00:27:19;;;;;;;;;;;7.80;99.90;;;;;;4972585;28;19988;-78
2024/01/01 00:30:05;;;;;;;;;;;7.80;99.90;;;;;;4983037;28;19929;-79
2024/01/01 00:32:51;;;;;;;;;;;7.80;99.90;;;;;;4983621;28;19925;-77
2024/01/01 00:35:37;;;;;;;;;;;7.80;99.90;;;;;;4969339;28;19932;-78
2024/01/01 00:38:23;;;;;;;;;;;7.80;99.90;;;;;;4969119;28;19978;-80
2024/01/01 00:41:13;;;;;;;;;;;7.80;99.90;;;;;;4970338;28;19918;-80
2024/01/01 00:44:02;;;;;;;;;;;7.80;99.90;;;;;;4966274;28;19949;-80
2024/01/01 00:46:48;;;;;;;;;;;7.80;99.90;;;;;;4970248;28;20262;-79
2024/01/01 00:49:34;;;;;;;;;;;7.80;99.90;;;;;;4976974;28;19913;-80
2024/01/01 00:52:20;;;;;;;;;;;7.80;99.90;;;;;;4981286;28;20005;-80
2024/01/01 00:55:06;;;;;;;;;;;7.80;99.90;;;;;;4995244;28;19913;-80
2024/01/01 00:57:53;;;;;;;;;;;7.80;99.90;;;;;;4992777;28;19914;-80
2024/01/01 01:00:39;;;;;;;;;;;7.80;99.90;;;;;;4981793;28;19929;-80
2024/01/01 01:03:25;;;;;;;;;;;7.80;99.90;;;;;;4981474;28;19914;-79
2024/01/01 01:06:11;;;;;;;;;;;7.80;99.90;;;;;;4981167;28;19969;-80
2024/01/01 01:08:56;;;;;;;;;;;7.80;99.90;;;;;;4969062;28;20664;-80
2024/01/01 01:11:42;;;;;;;;;;;7.80;99.90;;;;;;4981988;28;19917;-81
2024/01/01 01:14:28;;;;;;;;;;;7.80;99.90;;;;;;4978505;28;20642;-81
2024/01/01 01:17:14;;;;;;;;;;;7.80;99.90;;;;;;4985403;28;19969;-80
2024/01/01 01:20:00;;;;;;;;;;;7.80;99.90;;;;;;4977557;28;19918;-80
2024/01/01 01:22:46;;;;;;;;;;;7.80;99.90;;;;;;4990760;28;19914;-80
2024/01/01 01:25:32;;;;;;;;;;;7.80;99.90;;;;;;4991214;28;19929;-80
2024/01/01 01:28:21;;;;;;;;;;;7.80;99.90;;;;;;4986926;28;19929;-80
2024/01/01 01:31:07;;;;;;;;;;;7.80;99.90;;;;;;4972586;28;19917;-81
2024/01/01 01:33:54;;;;;;;;;;;7.80;99.90;;;;;;5011325;28;19913;-76
2024/01/01 01:36:41;;;;;;;;;;;7.80;99.90;;;;;;4975604;28;19921;-77
2024/01/01 01:39:28;;;;;;;;;;;7.80;99.90;;;;;;4964660;28;20106;-77
2024/01/01 01:42:14;;;;;;;;;;;7.80;99.90;;;;;;4968121;28;19926;-77
2024/01/01 01:45:00;;;;;;;;;;;7.90;99.90;;;;;;4971809;28;19918;-76
2024/01/01 01:47:46;;;;;;;;;;;7.90;99.90;;;;;;4968911;28;19921;-76
2024/01/01 01:50:31;;;;;;;;;;;7.90;99.90;;;;;;4993456;28;19914;-77
2024/01/01 01:53:23;;;;;;;;;;;7.90;99.90;;;;;;4979556;28;20000;-77
2024/01/01 01:56:09;;;;;;;;;;;7.90;99.90;;;;;;4987295;28;19945;-77
2024/01/01 01:58:55;;;;;;;;;;;7.90;99.90;;;;;;4975635;28;19917;-77
2024/01/01 02:01:41;;;;;;;;;;;7.90;99.90;;;;;;4969575;28;19914;-76
2024/01/01 02:04:27;;;;;;;;;;;7.90;99.90;;;;;;4982584;28;19922;-77
2024/01/01 02:07:13;;;;;;;;;;;7.90;99.90;;;;;;4983557;28;19971;-76
2024/01/01 02:09:59;;;;;;;;;;;7.90;99.90;;;;;;4984678;28;19964;-77
2024/01/01 02:12:45;;;;;;;;;;;7.90;99.90;;;;;;4967848;28;19925;-76
2024/01/01 02:15:31;;;;;;;;;;;7.90;99.90;;;;;;4971969;28;20466;-77
2024/01/01 02:18:17;;;;;;;;;;;7.90;99.90;;;;;;4956139;28;19932;-77
2024/01/01 02:21:03;;;;;;;;;;;7.90;99.90;;;;;;4996470;28;19913;-76
2024/01/01 02:23:49;;;;;;;;;;;7.90;99.90;;;;;;4996655;28;20302;-77
2024/01/01 02:26:35;;;;;;;;;;;7.90;99.90;;;;;;4969212;28;19918;-76
2024/01/01 02:29:21;;;;;;;;;;;7.90;99.90;;;;;;4962967;28;19945;-76
2024/01/01 02:32:06;;;;;;;;;;;7.90;99.90;;;;;;4983185;28;19913;-77
2024/01/01 02:34:53;;;;;;;;;;;7.90;99.90;;;;;;4995743;28;19917;-77
2024/01/01 02:37:39;;;;;;;;;;;7.90;99.90;;;;;;4984048;28;20005;-77
2024/01/01 02:40:24;;;;;;;;;;;7.90;99.90;;;;;;4982911;28;19922;-78
2024/01/01 02:43:10;;;;;;;;;;;7.90;99.90;;;;;;4989426;28;20001;-77
2024/01/01 02:45:56;;;;;;;;;;;7.90;99.90;;;;;;5000776;28;20383;-76
2024/01/01 02:48:42;;;;;;;;;;;7.90;99.90;;;;;;4988303;28;19918;-77
2024/01/01 02:51:28;;;;;;;;;;;7.90;99.90;;;;;;4970382;28;19914;-74
2024/01/01 02:54:14;;;;;;;;;;;7.90;99.90;;;;;;4978849;28;19914;-75
2024/01/01 02:57:00;;;;;;;;;;;7.90;99.90;;;;;;4975371;28;20337;-75
2024/01/01 02:59:46;;;;;;;;;;;8.00;99.90;;;;;;4988381;28;19918;-76
2024/01/01 03:02:32;;;;;;;;;;;8.00;99.90;;;;;;4981437;28;19918;-75
2024/01/01 03:05:22;;;;;;;;;;;8.00;99.90;;;;;;4953525;28;19937;-76
2024/01/01 03:08:09;;;;;;;;;;;8.00;99.90;;;;;;4989541;28;20043;-77
2024/01/01 03:10:55;;;;;;;;;;;8.00;99.90;;;;;;4998107;28;19913;-77
2024/01/01 03:13:41;;;;;;;;;;;8.00;99.90;;;;;;4984238;28;20389;-75
2024/01/01 03:16:27;;;;;;;;;;;8.00;99.90;;;;;;4967641;28;19921;-77
2024/01/01 03:19:13;;;;;;;;;;;8.00;99.90;;;;;;4994502;28;20572;-77
2024/01/01 03:21:58;;;;;;;;;;;8.00;99.90;;;;;;4963316;28;19914;-76
2024/01/01 03:24:44;;;;;;;;;;;8.00;99.90;;;;;;4974527;28;20408;-76
2024/01/01 03:27:30;;;;;;;;;;;8.00;99.90;;;;;;4973964;28;19933;-76
2024/01/01 03:30:17;;;;;;;;;;;8.00;99.90;;;;;;4980153;28;19930;-74
2024/01/01 03:33:02;;;;;;;;;;;8.00;99.90;;;;;;4985834;28;19918;-76
2024/01/01 03:35:48;;;;;;;;;;;8.00;99.90;;;;;;4975446;28;20004;-75
2024/01/01 03:38:34;;;;;;;;;;;7.90;99.90;;;;;;4977761;28;20060;-75
2024/01/01 03:41:24;;;;;;;;;;;8.00;99.90;;;;;;4960633;28;19918;-76
2024/01/01 03:44:10;;;;;;;;;;;7.90;99.90;;;;;;4965928;28;19980;-76
2024/01/01 03:46:56;;;;;;;;;;;7.90;99.90;;;;;;4957287;28;20009;-76
2024/01/01 03:49:42;;;;;;;;;;;7.90;99.90;;;;;;4974008;28;20227;-76
2024/01/01 03:52:28;;;;;;;;;;;7.90;99.90;;;;;;4971275;28;19917;-77
2024/01/01 03:55:15;;;;;;;;;;;7.90;99.90;;;;;;4966776;28;19921;-76
2024/01/01 03:58:01;;;;;;;;;;;7.90;99.90;;;;;;4983125;28;19917;-76
2024/01/01 04:00:47;;;;;;;;;;;7.90;99.90;;;;;;4974679;28;20303;-76
2024/01/01 04:03:33;;;;;;;;;;;7.90;99.90;;;;;;4949069;28;19926;-76
2024/01/01 04:06:19;;;;;;;;;;;7.90;99.90;;;;;;4948510;28;19957;-76
2024/01/01 04:09:04;;;;;;;;;;;7.90;99.90;;;;;;4969096;28;19921;-76
2024/01/01 04:11:50;;;;;;;;;;;7.90;99.90;;;;;;4961863;28;19918;-76
2024/01/01 04:14:36;;;;;;;;;;;8.00;99.90;;;;;;4968442;28;20729;-77
2024/01/01 04:17:22;;;;;;;;;;;7.90;99.90;;;;;;4980608;28;19980;-76
2024/01/01 04:20:10;;;;;;;;;;;8.00;99.90;;;;;;4980892;28;20341;-76
2024/01/01 04:22:56;;;;;;;;;;;8.00;99.90;;;;;;4980148;28;19914;-76
2024/01/01 04:25:41;;;;;;;;;;;8.00;99.90;;;;;;4990184;28;19976;-76
2024/01/01 04:28:27;;;;;;;;;;;8.00;99.90;;;;;;5009469;28;20339;-75
2024/01/01 04:31:13;;;;;;;;;;;8.00;99.90;;;;;;4989076;28;19914;-77
2024/01/01 04:33:59;;;;;;;;;;;8.00;99.90;;;;;;4967926;28;19946;-77
2024/01/01 04:36:45;;;;;;;;;;;8.00;99.90;;;;;;4968692;28;19918;-76
2024/01/01 04:39:31;;;;;;;;;;;7.90;99.90;;;;;;4971764;28;19918;-75
2024/01/01 04:42:17;;;;;;;;;;;8.00;99.90;;;;;;4989447;28;19925;-77
2024/01/01 04:45:03;;;;;;;;;;;8.00;99.90;;;;;;4947275;28;19914;-77
2024/01/01 04:47:49;;;;;;;;;;;8.00;99.90;;;;;;4947595;28;19925;-77
2024/01/01 04:50:35;;;;;;;;;;;8.00;99.90;;;;;;4963662;28;19918;-77
2024/01/01 04:53:21;;;;;;;;;;;8.00;99.90;;;;;;4974417;28;19914;-76
2024/01/01 04:56:07;;;;;;;;;;;7.90;99.90;;;;;;4973720;28;19917;-76
2024/01/01 04:58:56;;;;;;;;;;;8.00;99.90;;;;;;4954886;28;19929;-74
2024/01/01 05:01:42;;;;;;;;;;;7.90;99.90;;;;;;4968505;28;19967;-76
2024/01/01 05:04:28;;;;;;;;;;;8.00;99.90;;;;;;4975090;28;19921;-76
2024/01/01 05:07:13;;;;;;;;;;;7.90;99.90;;;;;;4986561;28;19925;-76
2024/01/01 05:09:59;;;;;;;;;;;7.90;99.90;;;;;;4987110;28;19918;-75
2024/01/01 05:12:45;;;;;;;;;;;8.00;99.90;;;;;;4962990;28;19914;-76
2024/01/01 05:15:31;;;;;;;;;;;8.00;99.90;;;;;;4992552;28;19976;-75
2024/01/01 05:18:17;;;;;;;;;;;8.00;99.90;;;;;;4983605;28;19917;-76
2024/01/01 05:21:03;;;;;;;;;;;8.00;99.90;;;;;;4954500;28;19918;-76
2024/01/01 05:23:49;;;;;;;;;;;8.00;99.90;;;;;;4958345;28;19958;-76
2024/01/01 05:26:35;;;;;;;;;;;8.00;99.90;;;;;;4986706;28;19918;-76
2024/01/01 05:29:21;;;;;;;;;;;8.00;99.90;;;;;;4987083;28;19913;-78
2024/01/01 05:32:07;;;;;;;;;;;8.00;99.90;;;;;;4974921;28;19914;-77
2024/01/01 05:34:53;;;;;;;;;;;8.00;99.90;;;;;;4986879;28;19925;-77
2024/01/01 05:37:38;;;;;;;;;;;8.00;99.90;;;;;;4985452;28;19984;-76
2024/01/01 05:40:24;;;;;;;;;;;8.00;99.90;;;;;;4986374;28;19928;-76
2024/01/01 05:43:10;;;;;;;;;;;8.00;99.90;;;;;;4986583;28;19924;-76
2024/01/01 05:45:56;;;;;;;;;;;8.00;99.90;;;;;;4986291;28;20425;-76
2024/01/01 05:48:42;;;;;;;;;;;7.90;99.90;;;;;;4999118;28;19965;-76
2024/01/01 05:51:28;;;;;;;;;;;7.90;99.90;;;;;;4986731;28;20397;-76
2024/01/01 05:54:14;;;;;;;;;;;7.90;99.90;;;;;;4978125;28;19923;-77
2024/01/01 05:57:00;;;;;;;;;;;7.90;99.90;;;;;;4982362;28;19929;-77
2024/01/01 05:59:45;;;;;;;;;;;7.90;99.90;;;;;;4979799;28;19917;-77
2024/01/01 06:02:31;;;;;;;;;;;7.90;99.90;;;;;;4961223;28;20538;-75
2024/01/01 06:05:17;;;;;;;;;;;7.90;99.90;;;;;;4983984;28;19937;-76
2024/01/01 06:08:03;;;;;;;;;;;7.90;99.90;;;;;;4982483;28;19925;-76
2024/01/01 06:10:49;;;;;;;;;;;7.90;99.90;;;;;;4982328;28;19953;-75
2024/01/01 06:13:35;;;;;;;;;;;7.90;99.90;;;;;;4989090;28;19925;-75
2024/01/01 06:16:24;;;;;;;;;;;7.90;99.90;;;;;;4985781;28;20330;-76
2024/01/01 06:19:10;;;;;;;;;;;7.90;99.90;;;;;;4970391;28;19914;-76
2024/01/01 06:21:56;;;;;;;;;;;8.00;99.90;;;;;;4979840;28;19917;-75
2024/01/01 06:24:42;;;;;;;;;;;8.00;99.90;;;;;;4983598;28;19921;-75
2024/01/01 06:27:28;;;;;;;;;;;8.00;99.90;;;;;;4984642;28;19955;-76
2024/01/01 06:30:14;;;;;;;;;;;8.10;99.90;;;;;;4982006;28;19960;-75
2024/01/01 06:33:01;;;;;;;;;;;8.10;99.90;;;;;;4983492;28;20398;-77
2024/01/01 06:35:47;;;;;;;;;;;8.10;99.90;;;;;;4982873;28;20004;-75
2024/01/01 06:38:34;;;;;;;;;;;8.10;99.90;;;;;;4970495;28;20005;-76
2024/01/01 06:41:20;;;;;;;;;;;8.10;99.90;;;;;;4970029;28;19996;-76
2024/01/01 06:44:05;;;;;;;;;;;8.10;99.90;;;;;;4975917;28;19929;-77
2024/01/01 06:46:51;;;;;;;;;;;8.10;99.90;;;;;;4970423;28;19937;-77
2024/01/01 06:49:37;;;;;;;;;;;8.10;99.90;;;;;;4968652;28;20001;-76
2024/01/01 06:52:23;;;;;;;;;;;8.10;99.90;;;;;;4969413;28;20238;-77
2024/01/01 06:55:09;;;;;;;;;;;8.10;99.90;;;;;;4986709;28;19917;-76
2024/01/01 06:57:55;;;;;;;;;;;8.10;99.90;;;;;;4968746;28;19929;-76
2024/01/01 07:00:43;;;;;;;;;;;8.10;99.90;;;;;;4981540;28;19913;-75
2024/01/01 07:03:29;;;;;;;;;;;8.10;99.90;;;;;;4970051;28;19968;-76
2024/01/01 07:06:15;;;;;;;;;;;8.10;99.90;;;;;;4984802;28;19925;-75
2024/01/01 07:09:01;;;;;;;;;;;8.10;99.90;;;;;;4999625;28;19928;-75
2024/01/01 07:11:47;;;;;;;;;;;8.10;99.90;;;;;;4999294;28;19921;-76
2024/01/01 07:14:33;;;;;;;;;;;8.10;99.90;;;;;;4969819;28;19914;-76
2024/01/01 07:17:19;;;;;;;;;;;8.10;99.90;;;;;;4976069;28;19996;-76
2024/01/01 07:20:05;;;;;;;;;;;8.10;99.90;;;;;;5001244;28;20219;-77
2024/01/01 07:22:51;;;;;;;;;;;8.10;99.90;;;;;;4988626;28;19913;-75
2024/01/01 07:25:37;;;;;;;;;;;8.00;99.90;;;;;;4981679;28;19925;-76
2024/01/01 07:28:25;;;;;;;;;;;8.00;99.90;;;;;;4962407;28;19921;-76
2024/01/01 07:31:11;;;;;;;;;;;8.00;99.90;;;;;;4980690;28;19925;-77
2024/01/01 07:33:57;;;;;;;;;;;7.90;99.90;;;;;;4968596;28;19918;-77
2024/01/01 07:36:43;;;;;;;;;;;7.90;99.90;;;;;;4982571;28;20342;-77
2024/01/01 07:39:29;;;;;;;;;;;7.90;99.90;;;;;;4975456;28;19976;-76
2024/01/01 07:42:16;;;;;;;;;;;7.90;99.90;;;;;;4969876;28;19941;-74
2024/01/01 07:45:02;;;;;;;;;;;7.90;99.90;;;;;;4976666;28;20241;-76
2024/01/01 07:47:48;;;;;;;;;;;7.90;99.90;;;;;;4984204;28;19922;-77
2024/01/01 07:50:34;;;;;;;;;;;7.80;99.90;;;;;;4967579;28;19972;-76
2024/01/01 07:53:19;;;;;;;;;;;7.80;99.90;;;;;;4980614;28;20509;-75
2024/01/01 07:56:06;;;;;;;;;;;7.80;99.90;;;;;;4963052;28;19922;-76
2024/01/01 07:58:52;;;;;;;;;;;7.80;99.90;;;;;;4954697;28;20299;-77
2024/01/01 08:01:38;;;;;;;;;;;7.70;99.90;;;;;;4981957;28;19921;-77
2024/01/01 08:04:24;;;;;;;;;;;7.80;99.90;;;;;;4972367;28;20000;-79
2024/01/01 08:07:12;;;;;;;;;;;7.70;99.90;;;;;;4969770;28;20220;-78
2024/01/01 08:09:58;;;;;;;;;;;7.70;99.90;;;;;;4967056;28;19924;-79
2024/01/01 08:12:44;;;;;;;;;;;7.70;99.90;;;;;;4976363;28;20647;-79
2024/01/01 08:15:30;;;;;;;;;;;7.70;99.90;;;;;;4968055;28;19921;-78
2024/01/01 08:18:15;;;;;;;;;;;7.70;99.90;;;;;;4967028;28;19914;-79
2024/01/01 08:21:01;;;;;;;;;;;7.70;99.90;;;;;;4980067;28;20398;-79
2024/01/01 08:23:47;;;;;;;;;;;7.80;99.90;;;;;;4986291;28;19917;-78
2024/01/01 08:26:33;;;;;;;;;;;7.70;99.90;;;;;;4984330;28;19922;-79
2024/01/01 08:29:19;;;;;;;;;;;7.70;99.90;;;;;;4978469;28;20239;-78
2024/01/01 08:32:05;;;;;;;;;;;7.70;99.90;;;;;;4980878;28;19945;-77
2024/01/01 08:34:51;;;;;;;;;;;7.70;99.90;;;;;;4979879;28;19917;-78
2024/01/01 08:37:37;;;;;;;;;;;7.70;99.90;;;;;;4967673;28;20421;-79
2024/01/01 08:40:23;;;;;;;;;;;7.70;99.90;;;;;;4980738;28;20346;-79
2024/01/01 08:43:08;;;;;;;;;;;7.80;99.90;;;;;;4954346;28;19928;-77
2024/01/01 08:45:54;;;;;;;;;;;7.80;99.90;;;;;;4967390;28;20373;-78
2024/01/01 08:48:40;;;;;;;;;;;7.70;99.90;;;;;;4991366;28;19913;-79
2024/01/01 08:51:26;;;;;;;;;;;7.80;99.90;;;;;;4985770;28;19919;-79
2024/01/01 08:54:15;;;;;;;;;;;7.70;99.90;;;;;;5000567;28;20000;-79
2024/01/01 08:57:01;;;;;;;;;;;7.70;99.90;;;;;;4981649;28;19949;-79
2024/01/01 08:59:47;;;;;;;;;;;7.70;99.90;;;;;;4971445;28;19918;-79
2024/01/01 09:02:33;;;;;;;;;;;7.80;99.90;;;;;;4968198;28;19921;-80
2024/01/01 09:05:19;;;;;;;;;;;7.80;99.90;;;;;;4948059;28;20421;-79
2024/01/01 09:08:05;;;;;;;;;;;7.70;99.90;;;;;;4971537;28;19918;-80
2024/01/01 09:10:50;;;;;;;;;;;7.70;99.90;;;;;;4980198;28;19921;-79
2024/01/01 09:13:36;;;;;;;;;;;7.70;99.90;;;;;;4971882;28;19914;-79
2024/01/01 09:16:22;;;;;;;;;;;7.80;99.90;;;;;;4975163;28;19918;-78
2024/01/01 09:19:08;;;;;;;;;;;7.80;99.90;;;;;;4979617;28;19921;-79
2024/01/01 09:21:54;;;;;;;;;;;7.70;99.90;;;;;;4973522;28;19964;-78
2024/01/01 09:24:41;;;;;;;;;;;7.80;99.90;;;;;;4992051;28;20507;-79
2024/01/01 09:27:27;;;;;;;;;;;7.80;99.90;;;;;;4981678;28;19976;-79
2024/01/01 09:30:13;;;;;;;;;;;7.80;99.90;;;;;;4980298;28;19914;-79
2024/01/01 09:32:59;;;;;;;;;;;7.90;99.90;;;;;;4982177;28;19953;-79
2024/01/01 09:35:46;;;;;;;;;;;8.00;99.90;;;;;;4985362;28;20304;-80
2024/01/01 09:38:32;;;;;;;;;;;8.00;99.90;;;;;;4972357;28;20020;-78
2024/01/01 09:41:18;;;;;;;;;;;8.00;99.90;;;;;;4992266;28;19949;-78
2024/01/01 09:44:04;;;;;;;;;;;8.00;99.90;;;;;;4972591;28;19929;-76
2024/01/01 09:46:50;;;;;;;;;;;8.10;99.90;;;;;;4961736;28;19922;-78
2024/01/01 09:49:36;;;;;;;;;;;8.10;99.90;;;;;;4970815;28;19917;-78
2024/01/01 09:52:22;;;;;;;;;;;8.10;99.90;;;;;;4971633;28;20319;-79
2024/01/01 09:55:08;;;;;;;;;;;8.10;99.90;;;;;;4978835;28;19937;-80
2024/01/01 09:57:54;;;;;;;;;;;8.20;99.90;;;;;;4997170;28;19918;-79
2024/01/01 10:00:40;;;;;;;;;;;8.20;99.90;;;;;;4965488;28;19915;-79
2024/01/01 10:03:25;;;;;;;;;;;8.20;99.90;;;;;;4980916;28;19956;-77
2024/01/01 10:06:12;;;;;;;;;;;8.30;99.90;;;;;;4991100;28;20012;-78
2024/01/01 10:09:06;;;;;;;;;;;8.30;99.90;;;;;;4984213;28;19917;-79
2024/01/01 10:11:51;;;;;;;;;;;8.30;99.90;;;;;;4985702;28;19925;-79
2024/01/01 10:14:45;;;;;;;;;;;8.30;99.90;;;;;;4990499;28;19949;-76
2024/01/01 10:17:30;;;;;;;;;;;8.30;99.90;;;;;;4983629;28;19928;-77
2024/01/01 10:20:17;;;;;;;;;;;8.30;99.90;;;;;;4989746;28;20418;-77
2024/01/01 10:23:19;;;;;;;;;;;8.30;99.90;;;;;;4971424;28;19917;-80
2024/01/01 10:26:10;;;;;;;;;;;8.40;99.90;;;;;;5015378;28;20270;-78
2024/01/01 10:28:56;;;;;;;;;;;8.30;99.90;;;;;;4965351;28;19918;-80
2024/01/01 10:31:45;;;;;;;;;;;8.40;99.90;;;;;;4964098;28;19922;-80
2024/01/01 10:34:31;;;;;;;;;;;8.40;99.90;;;;;;4973418;28;20000;-80
2024/01/01 10:37:20;;;;;;;;;;;8.40;99.90;;;;;;4997042;28;19917;-79
2024/01/01 10:40:06;;;;;;;;;;;8.40;99.90;;;;;;4992263;28;20364;-80
2024/01/01 10:42:52;;;;;;;;;;;8.40;99.90;;;;;;4999702;28;19918;-78
2024/01/01 10:45:38;;;;;;;;;;;8.40;99.90;;;;;;4988385;28;20322;-80
2024/01/01 10:48:23;;;;;;;;;;;8.40;99.90;;;;;;4997975;28;19965;-80
2024/01/01 10:51:31;;;;;;;;;;;8.50;99.90;;;;;;4973485;28;19959;-79
2024/01/01 10:54:36;;;;;;;;;;;8.50;99.90;;;;;;4983302;28;19934;-78
2024/01/01 10:57:38;;;;;;;;;;;8.50;99.90;;;;;;4987266;28;19925;-78
2024/01/01 11:00:43;;;;;;;;;;;8.50;99.90;;;;;;4965855;28;19973;-79
2024/01/01 11:03:29;;;;;;;;;;;8.50;99.90;;;;;;4991464;28;19925;-79
2024/01/01 11:06:27;;;;;;;;;;;8.50;99.90;;;;;;4991940;28;20025;-79
2024/01/01 11:09:19;;;;;;;;;;;8.40;99.90;;;;;;4971200;28;19914;-78
2024/01/01 11:12:06;;;;;;;;;;;8.40;99.90;;;;;;4986466;28;19918;-78
2024/01/01 11:14:51;;;;;;;;;;;8.40;99.90;;;;;;4999322;28;20335;-79
2024/01/01 11:17:37;;;;;;;;;;;8.40;99.90;;;;;;4978998;28;19921;-79
2024/01/01 11:20:47;;;;;;;;;;;8.40;99.90;;;;;;4973448;28;19968;-77
2024/01/01 11:23:36;;;;;;;;;;;8.40;99.90;;;;;;4982941;28;19918;-79
2024/01/01 11:26:22;;;;;;;;;;;8.40;99.90;;;;;;4972750;28;20016;-79
2024/01/01 11:29:34;;;;;;;;;;;8.40;99.90;;;;;;4996515;28;20366;-79
2024/01/01 11:32:20;;;;;;;;;;;8.40;99.90;;;;;;4978956;28;20315;-79
2024/01/01 11:35:07;;;;;;;;;;;8.40;99.90;;;;;;4974768;28;20013;-78
2024/01/01 11:37:55;;;;;;;;;;;8.30;99.90;;;;;;4987603;28;19969;-78
2024/01/01 11:40:43;;;;;;;;;;;8.40;99.90;;;;;;4995046;28;20624;-78
2024/01/01 11:43:29;;;;;;;;;;;8.30;99.90;;;;;;4982211;28;19976;-76
2024/01/01 11:46:25;;;;;;;;;;;8.40;99.90;;;;;;4973111;28;20313;-79
2024/01/01 11:49:11;;;;;;;;;;;8.30;99.90;;;;;;4976023;28;19984;-79
2024/01/01 11:51:58;;;;;;;;;;;8.30;99.90;;;;;;4982302;28;19941;-79
2024/01/01 11:54:47;;;;;;;;;;;8.30;99.90;;;;;;4967314;28;19957;-77
2024/01/01 11:57:34;;;;;;;;;;;8.30;99.90;;;;;;4981513;28;20342;-79
2024/01/01 12:00:21;;;;;;;;;;;8.20;99.90;;;;;;4992781;28;19918;-79
2024/01/01 12:03:07;;;;;;;;;;;8.30;99.90;;;;;;4982874;28;20012;-78
2024/01/01 12:06:02;;;;;;;;;;;8.30;99.90;;;;;;4966889;28;19922;-78
2024/01/01 12:08:49;;;;;;;;;;;8.30;99.90;;;;;;4976905;28;19922;-78
2024/01/01 12:11:44;;;;;;;;;;;8.20;99.90;;;;;;4966899;28;19917;-77
2024/01/01 12:14:30;;;;;;;;;;;8.20;99.90;;;;;;4978410;28;19925;-77
2024/01/01 12:17:16;;;;;;;;;;;8.20;99.90;;;;;;4992645;28;19924;-78
2024/01/01 12:20:02;;;;;;;;;;;8.20;99.90;;;;;;4991362;28;20001;-78
2024/01/01 12:22:48;;;;;;;;;;;8.20;99.90;;;;;;4971494;28;19918;-80
2024/01/01 12:25:34;;;;;;;;;;;8.20;99.90;;;;;;4984655;28;20344;-79
2024/01/01 12:28:20;;;;;;;;;;;8.20;99.90;;;;;;4982291;28;19941;-77
2024/01/01 12:31:06;;;;;;;;;;;8.20;99.90;;;;;;4975850;28;19914;-79
2024/01/01 12:33:52;;;;;;;;;;;8.20;99.90;;;;;;4959529;28;19968;-78
2024/01/01 12:36:38;;;;;;;;;;;8.20;99.90;;;;;;4984464;28;20259;-79
2024/01/01 12:39:23;;;;;;;;;;;8.20;99.90;;;;;;4984687;28;19985;-78
2024/01/01 12:42:09;;;;;;;;;;;8.20;99.90;;;;;;4991954;28;19960;-79
2024/01/01 12:44:56;;;;;;;;;;;8.20;99.90;;;;;;4975240;28;20254;-79
2024/01/01 12:47:42;;;;;;;;;;;8.20;99.90;;;;;;4980047;28;20054;-78
2024/01/01 12:50:28;;;;;;;;;;;8.20;99.90;;;;;;4979966;28;19921;-77
2024/01/01 12:53:14;;;;;;;;;;;8.20;99.90;;;;;;4983013;28;20404;-79
2024/01/01 12:56:00;;;;;;;;;;;8.20;99.90;;;;;;4965642;28;20344;-79
2024/01/01 12:58:45;;;;;;;;;;;8.20;99.90;;;;;;4957532;28;19917;-78
2024/01/01 13:01:31;;;;;;;;;;;8.20;99.90;;;;;;4986368;28;19961;-79
2024/01/01 13:04:17;;;;;;;;;;;8.20;99.90;;;;;;4966036;28;19929;-78
2024/01/01 13:07:03;;;;;;;;;;;8.20;99.90;;;;;;4948108;28;20691;-78
2024/01/01 13:09:49;;;;;;;;;;;8.20;99.90;;;;;;4943519;28;20204;-78
2024/01/01 13:12:35;;;;;;;;;;;8.20;99.90;;;;;;4960211;28;19925;-77
2024/01/01 13:15:21;;;;;;;;;;;8.20;99.90;;;;;;4962973;28;20323;-77
2024/01/01 13:18:07;;;;;;;;;;;8.20;99.90;;;;;;4963784;28;20369;-80
2024/01/01 13:20:53;;;;;;;;;;;8.20;99.90;;;;;;4949830;28;19914;-77
2024/01/01 13:23:39;;;;;;;;;;;8.10;99.90;;;;;;4966679;28;19925;-79
2024/01/01 13:26:25;;;;;;;;;;;8.20;99.90;;;;;;4970064;28;20246;-80
2024/01/01 13:29:11;;;;;;;;;;;8.10;99.90;;;;;;4970210;28;19993;-79
2024/01/01 13:31:57;;;;;;;;;;;8.10;99.90;;;;;;4966475;28;19920;-78
2024/01/01 13:34:43;;;;;;;;;;;8.20;99.90;;;;;;4964173;28;19949;-79
2024/01/01 13:37:28;;;;;;;;;;;8.10;99.90;;;;;;4945335;29;19922;-78
2024/01/01 13:40:14;;;;;;;;;;;8.20;99.90;;;;;;4963295;28;20588;-78
2024/01/01 13:43:00;;;;;;;;;;;8.20;99.90;;;;;;4965393;28;19918;-80
2024/01/01 13:45:46;;;;;;;;;;;8.20;99.90;;;;;;4951815;28;19922;-79
2024/01/01 13:48:32;;;;;;;;;;;8.20;99.90;;;;;;4952551;28;20000;-79
2024/01/01 13:51:18;;;;;;;;;;;8.20;99.90;;;;;;4965550;28;20032;-78
2024/01/01 13:54:04;;;;;;;;;;;8.20;99.90;;;;;;4952599;28;19921;-80
2024/01/01 13:56:50;;;;;;;;;;;8.20;99.90;;;;;;4951469;28;20555;-80
2024/01/01 13:59:36;;;;;;;;;;;8.20;99.90;;;;;;4979088;28;19924;-78
2024/01/01 14:02:22;;;;;;;;;;;8.20;99.90;;;;;;4978624;28;19929;-79
2024/01/01 14:05:08;;;;;;;;;;;8.10;99.90;;;;;;4965960;28;19932;-80
2024/01/01 14:07:54;;;;;;;;;;;8.10;99.90;;;;;;4971737;28;20005;-78
2024/01/01 14:10:41;;;;;;;;;;;8.20;99.90;;;;;;4965564;28;19949;-80
2024/01/01 14:13:28;;;;;;;;;;;8.10;99.90;;;;;;4966240;28;19914;-80
2024/01/01 14:16:14;;;;;;;;;;;8.10;99.90;;;;;;4985930;28;19925;-80
2024/01/01 14:18:59;;;;;;;;;;;8.10;99.90;;;;;;4986332;28;19973;-78
2024/01/01 14:21:45;;;;;;;;;;;8.10;99.90;;;;;;4972871;28;20318;-78
2024/01/01 14:24:31;;;;;;;;;;;8.10;99.90;;;;;;4970502;28;19914;-79
2024/01/01 14:27:17;;;;;;;;;;;8.10;99.90;;;;;;4996009;28;19921;-79
2024/01/01 14:30:05;;;;;;;;;;;8.10;99.90;;;;;;4990784;28;19925;-78
2024/01/01 14:32:53;;;;;;;;;;;8.10;99.90;;;;;;5002203;28;19913;-77
2024/01/01 14:35:39;;;;;;;;;;;8.10;99.90;;;;;;4953587;28;20271;-78
2024/01/01 14:38:24;;;;;;;;;;;8.10;99.90;;;;;;4964480;28;19913;-77
2024/01/01 14:41:10;;;;;;;;;;;8.10;99.90;;;;;;4995165;28;19941;-79
2024/01/01 14:43:56;;;;;;;;;;;8.10;99.90;;;;;;4971036;28;19924;-79
2024/01/01 14:46:42;;;;;;;;;;;8.10;99.90;;;;;;4982180;28;19926;-78
2024/01/01 14:49:28;;;;;;;;;;;8.10;99.90;;;;;;4959552;28;19921;-77
2024/01/01 14:52:16;;;;;;;;;;;8.10;99.90;;;;;;4988795;28;19914;-76
2024/01/01 14:55:04;;;;;;;;;;;8.10;99.90;;;;;;4969500;28;20377;-76
2024/01/01 14:57:50;;;;;;;;;;;8.10;99.90;;;;;;4949409;28;19914;-77
2024/01/01 15:00:36;;;;;;;;;;;8.00;99.90;;;;;;4980774;28;20338;-76
2024/01/01 15:03:22;;;;;;;;;;;8.00;99.90;;;;;;4973594;28;19914;-78
2024/01/01 15:06:08;;;;;;;;;;;7.90;99.90;;;;;;4983730;28;20017;-76
2024/01/01 15:08:54;;;;;;;;;;;7.90;99.90;;;;;;4996391;28;19957;-78
2024/01/01 15:11:40;;;;;;;;;;;7.90;99.90;;;;;;4968961;28;19914;-77
2024/01/01 15:14:26;;;;;;;;;;;7.90;99.90;;;;;;4976433;28;20704;-78
2024/01/01 15:17:12;;;;;;;;;;;7.90;99.90;;;;;;4987912;28;19921;-77
2024/01/01 15:19:58;;;;;;;;;;;7.90;99.90;;;;;;4969982;28;19928;-76
2024/01/01 15:22:44;;;;;;;;;;;7.80;99.90;;;;;;4969751;28;19948;-76
2024/01/01 15:25:29;;;;;;;;;;;7.90;99.90;;;;;;4962328;28;19918;-76
2024/01/01 15:28:15;;;;;;;;;;;7.90;99.90;;;;;;4978223;28;20313;-77
2024/01/01 15:31:01;;;;;;;;;;;7.80;99.90;;;;;;4975451;28;20257;-77
2024/01/01 15:33:48;;;;;;;;;;;7.80;99.90;;;;;;4971907;28;19914;-75
2024/01/01 15:36:33;;;;;;;;;;;7.80;99.90;;;;;;4968173;28;19914;-74
2024/01/01 15:39:19;;;;;;;;;;;7.70;99.90;;;;;;4979082;28;19976;-74
2024/01/01 15:42:09;;;;;;;;;;;7.60;99.90;;;;;;4969803;28;20675;-73
2024/01/01 15:44:55;;;;;;;;;;;7.60;99.90;;;;;;4983697;28;19914;-74
2024/01/01 15:47:41;;;;;;;;;;;7.50;99.90;;;;;;5009898;28;19921;-75
2024/01/01 15:50:27;;;;;;;;;;;7.50;99.90;;;;;;4959246;28;19918;-75
2024/01/01 15:53:13;;;;;;;;;;;7.50;99.90;;;;;;4977583;28;20409;-74
2024/01/01 15:56:00;;;;;;;;;;;7.60;99.90;;;;;;4973914;28;20413;-76
2024/01/01 15:58:46;;;;;;;;;;;7.50;99.90;;;;;;4978185;28;19914;-75
2024/01/01 16:01:32;;;;;;;;;;;7.50;99.90;;;;;;4977841;28;19924;-77
2024/01/01 16:04:18;;;;;;;;;;;7.50;99.90;;;;;;4990693;28;19917;-75
2024/01/01 16:07:04;;;;;;;;;;;7.50;99.90;;;;;;4983484;28;20350;-76
2024/01/01 16:09:50;;;;;;;;;;;7.50;99.90;;;;;;4967760;28;19918;-78
2024/01/01 16:12:36;;;;;;;;;;;7.60;99.90;;;;;;4975828;28;19914;-78
2024/01/01 16:15:22;;;;;;;;;;;7.50;99.90;;;;;;4982526;28;19914;-78
2024/01/01 16:18:08;;;;;;;;;;;7.50;99.90;;;;;;4988410;28;19928;-74
2024/01/01 16:20:54;;;;;;;;;;;7.40;99.90;;;;;;4967525;28;20556;-74
2024/01/01 16:23:40;;;;;;;;;;;7.40;99.90;;;;;;4984736;28;19920;-76
2024/01/01 16:26:26;;;;;;;;;;;7.40;99.90;;;;;;4984116;28;19921;-76